Time;durP1;ratioP1;P1;durP2;ratioP2;P2;SDS_P1;SDS_P2;PMS_P1;PMS_P2;Temp;Humidity;BMP_temperature;BMP_pressure;BME280_temperature;BME280_humidity;BME280_pressure;Samples;Min_cycle;Max_cycle;Signal;HPM_P1;HPM_P2
2023/12/02 00:00:21;;;;;;;1.58;0.90;;;-1.30;99.90;;;;;;5020518;28;20771;-75
2023/12/02 00:02:47;;;;;;;1.88;1.70;;;-1.20;99.90;;;;;;5025655;28;20609;-74
2023/12/02 00:05:12;;;;;;;1.30;1.20;;;-1.30;99.90;;;;;;5022887;28;20108;-75
2023/12/02 00:07:38;;;;;;;1.95;1.30;;;-1.20;99.90;;;;;;5025181;28;20052;-75
2023/12/02 00:10:07;;;;;;;1.20;1.15;;;-1.20;99.90;;;;;;5019654;28;20073;-75
2023/12/02 00:12:33;;;;;;;0.60;0.60;;;-1.20;99.90;;;;;;5026540;28;20697;-74
2023/12/02 00:14:58;;;;;;;0.70;0.70;;;-1.20;99.90;;;;;;5027896;28;20037;-75
2023/12/02 00:17:24;;;;;;;1.17;1.17;;;-1.30;99.90;;;;;;5020810;28;20195;-74
2023/12/02 00:19:50;;;;;;;0.77;0.68;;;-1.20;99.90;;;;;;5020429;28;20053;-75
2023/12/02 00:22:15;;;;;;;0.95;0.95;;;-1.30;99.90;;;;;;5026845;28;20124;-74
2023/12/02 00:24:41;;;;;;;0.85;0.85;;;-1.30;99.90;;;;;;5027924;28;20118;-75
2023/12/02 00:27:07;;;;;;;0.60;0.60;;;-1.30;99.90;;;;;;5027521;28;20856;-75
2023/12/02 00:29:33;;;;;;;0.63;0.63;;;-1.30;99.90;;;;;;5016243;28;20128;-75
2023/12/02 00:31:59;;;;;;;0.85;0.85;;;-1.30;99.90;;;;;;5015208;28;20137;-74
2023/12/02 00:34:25;;;;;;;1.13;1.13;;;-1.30;99.90;;;;;;5023799;28;20045;-75
2023/12/02 00:36:50;;;;;;;2.88;1.20;;;-1.40;99.90;;;;;;5021948;28;20050;-75
2023/12/02 00:39:16;;;;;;;0.80;0.80;;;-1.40;99.90;;;;;;5026595;28;20045;-75
2023/12/02 00:41:42;;;;;;;0.75;0.60;;;-1.40;99.90;;;;;;5025346;28;20052;-75
2023/12/02 00:44:07;;;;;;;0.93;0.93;;;-1.40;99.90;;;;;;5021882;28;20846;-74
2023/12/02 00:46:33;;;;;;;0.55;0.55;;;-1.40;99.90;;;;;;5018411;28;20128;-74
2023/12/02 00:48:59;;;;;;;0.80;0.80;;;-1.40;99.90;;;;;;5020140;28;20064;-74
2023/12/02 00:51:24;;;;;;;0.70;0.70;;;-1.50;99.90;;;;;;5018791;28;20045;-75
2023/12/02 00:53:50;;;;;;;0.55;0.55;;;-1.50;99.90;;;;;;5024661;28;20053;-75
2023/12/02 00:56:17;;;;;;;0.60;0.60;;;-1.50;99.90;;;;;;5016242;28;20521;-75
2023/12/02 00:58:42;;;;;;;1.25;1.15;;;-1.50;99.90;;;;;;5025801;28;20045;-75
2023/12/02 01:01:09;;;;;;;0.60;0.60;;;-1.50;99.90;;;;;;5027128;28;20764;-75
2023/12/02 01:03:34;;;;;;;1.00;1.00;;;-1.60;99.90;;;;;;5023586;28;20514;-75
2023/12/02 01:06:00;;;;;;;0.65;0.65;;;-1.50;99.90;;;;;;5025775;28;20060;-75
2023/12/02 01:08:26;;;;;;;0.50;0.50;;;-1.60;99.90;;;;;;5022624;28;20096;-75
2023/12/02 01:10:51;;;;;;;0.65;0.65;;;-1.60;99.90;;;;;;5025097;28;20428;-75
2023/12/02 01:13:17;;;;;;;1.08;0.98;;;-1.60;99.90;;;;;;5018831;28;20050;-75
2023/12/02 01:15:43;;;;;;;1.63;1.25;;;-1.60;99.90;;;;;;5025626;28;20037;-75
2023/12/02 01:18:08;;;;;;;2.45;1.15;;;-1.60;99.90;;;;;;5014524;28;20045;-75
2023/12/02 01:20:34;;;;;;;0.40;0.40;;;-1.60;99.90;;;;;;5013169;28;20045;-75
2023/12/02 01:23:01;;;;;;;0.80;0.80;;;-1.60;99.90;;;;;;5019208;28;20056;-75
2023/12/02 01:25:26;;;;;;;0.98;0.98;;;-1.60;99.90;;;;;;5019097;28;20049;-75
2023/12/02 01:27:52;;;;;;;0.73;0.73;;;-1.60;99.90;;;;;;5016417;28;20049;-75
2023/12/02 01:30:18;;;;;;;0.68;0.68;;;-1.60;99.90;;;;;;5019124;28;20088;-75
2023/12/02 01:32:43;;;;;;;0.95;0.70;;;-1.60;99.90;;;;;;5017094;28;20050;-75
2023/12/02 01:35:09;;;;;;;0.82;0.82;;;-1.50;99.90;;;;;;5019855;28;20049;-74
2023/12/02 01:37:35;;;;;;;1.58;0.90;;;-1.60;99.90;;;;;;5022066;28;20126;-75
2023/12/02 01:40:01;;;;;;;0.80;0.80;;;-1.60;99.90;;;;;;5017801;28;20054;-74
2023/12/02 01:42:26;;;;;;;0.55;0.55;;;-1.60;99.90;;;;;;5018342;28;20128;-75
2023/12/02 01:44:52;;;;;;;0.60;0.60;;;-1.60;99.90;;;;;;5020041;28;20038;-75
2023/12/02 01:47:18;;;;;;;0.63;0.63;;;-1.60;99.90;;;;;;5015730;28;20491;-75
2023/12/02 01:49:44;;;;;;;1.35;1.27;;;-1.60;99.90;;;;;;5014063;28;20046;-75
2023/12/02 01:52:11;;;;;;;1.08;1.08;;;-1.50;99.90;;;;;;5011495;28;20073;-74
2023/12/02 01:54:37;;;;;;;0.85;0.85;;;-1.50;99.90;;;;;;5022548;28;20144;-75
2023/12/02 01:57:03;;;;;;;1.20;1.17;;;-1.50;99.90;;;;;;5026350;28;20116;-74
2023/12/02 01:59:30;;;;;;;1.13;0.75;;;-1.50;99.90;;;;;;5025411;28;20045;-74
2023/12/02 02:01:56;;;;;;;0.50;0.50;;;-1.50;99.90;;;;;;5030853;28;20049;-74
2023/12/02 02:04:22;;;;;;;2.05;0.70;;;-1.50;99.90;;;;;;5028963;28;20041;-74
2023/12/02 02:06:49;;;;;;;0.82;0.82;;;-1.50;99.90;;;;;;5028323;28;20513;-75
2023/12/02 02:09:14;;;;;;;0.40;0.40;;;-1.50;99.90;;;;;;5017734;28;20145;-75
2023/12/02 02:11:40;;;;;;;0.50;0.50;;;-1.50;99.90;;;;;;5022907;28;20657;-75
2023/12/02 02:14:06;;;;;;;0.43;0.43;;;-1.50;99.90;;;;;;5022173;28;20430;-74
2023/12/02 02:16:32;;;;;;;1.30;0.75;;;-1.50;99.90;;;;;;5024514;28;20053;-74
2023/12/02 02:18:57;;;;;;;0.65;0.65;;;-1.50;99.90;;;;;;5028723;28;20060;-75
2023/12/02 02:21:23;;;;;;;0.70;0.70;;;-1.50;99.90;;;;;;5028547;28;20552;-75
2023/12/02 02:23:49;;;;;;;0.50;0.50;;;-1.50;99.90;;;;;;5017588;28;20048;-75
2023/12/02 02:26:14;;;;;;;0.82;0.82;;;-1.50;99.90;;;;;;5024211;28;20057;-75
2023/12/02 02:28:40;;;;;;;0.77;0.77;;;-1.50;99.90;;;;;;5020753;28;20090;-75
2023/12/02 02:31:06;;;;;;;0.70;0.70;;;-1.50;99.90;;;;;;5022842;28;20092;-75
2023/12/02 02:33:32;;;;;;;0.40;0.40;;;-1.50;99.90;;;;;;5025652;28;20045;-75
2023/12/02 02:35:58;;;;;;;1.45;1.35;;;-1.50;99.90;;;;;;5028662;28;20045;-75
2023/12/02 02:38:25;;;;;;;0.50;0.50;;;-1.50;99.90;;;;;;5028983;28;20049;-75
2023/12/02 02:40:50;;;;;;;1.00;0.82;;;-1.50;99.90;;;;;;5029743;28;20049;-75
2023/12/02 02:43:16;;;;;;;1.02;1.02;;;-1.50;99.90;;;;;;5024691;28;20124;-75
2023/12/02 02:45:42;;;;;;;1.65;0.82;;;-1.50;99.90;;;;;;5025770;28;20200;-75
2023/12/02 02:48:08;;;;;;;0.85;0.85;;;-1.50;99.90;;;;;;5026042;28;20532;-75
2023/12/02 02:50:34;;;;;;;0.57;0.57;;;-1.50;99.90;;;;;;5018761;28;20516;-74
2023/12/02 02:53:00;;;;;;;0.75;0.75;;;-1.50;99.90;;;;;;5028632;28;20052;-75
2023/12/02 02:55:25;;;;;;;0.77;0.77;;;-1.50;99.90;;;;;;5026503;28;20082;-75
2023/12/02 02:57:51;;;;;;;0.93;0.93;;;-1.50;99.90;;;;;;5019695;28;20052;-75
2023/12/02 03:00:18;;;;;;;0.60;0.60;;;-1.50;99.90;;;;;;5013925;28;20042;-75
2023/12/02 03:02:44;;;;;;;0.98;0.98;;;-1.50;99.90;;;;;;5013168;28;20828;-75
2023/12/02 03:05:10;;;;;;;0.50;0.50;;;-1.50;99.90;;;;;;5022774;28;20088;-75
2023/12/02 03:07:36;;;;;;;0.50;0.50;;;-1.40;99.90;;;;;;5026157;28;20077;-76
2023/12/02 03:10:02;;;;;;;1.63;1.52;;;-1.50;99.90;;;;;;5021367;28;20046;-74
2023/12/02 03:12:27;;;;;;;1.23;1.13;;;-1.50;99.90;;;;;;5022616;28;20049;-75
2023/12/02 03:14:54;;;;;;;0.95;0.95;;;-1.50;99.90;;;;;;5020838;28;20048;-75
2023/12/02 03:17:20;;;;;;;0.73;0.73;;;-1.50;99.90;;;;;;5022792;28;20076;-74
2023/12/02 03:19:51;;;;;;;0.55;0.55;;;-1.50;99.90;;;;;;5024325;28;20049;-75
2023/12/02 03:22:17;;;;;;;0.55;0.55;;;-1.50;99.90;;;;;;5027495;28;20126;-74
2023/12/02 03:24:43;;;;;;;2.92;0.85;;;-1.40;99.90;;;;;;5026088;28;20058;-74
2023/12/02 03:27:08;;;;;;;0.90;0.90;;;-1.40;99.90;;;;;;5026918;28;20851;-74
2023/12/02 03:29:34;;;;;;;1.00;1.00;;;-1.40;99.90;;;;;;5027392;28;20042;-74
2023/12/02 03:32:00;;;;;;;0.75;0.70;;;-1.40;99.90;;;;;;5009015;28;20049;-74
2023/12/02 03:34:25;;;;;;;2.05;0.85;;;-1.40;99.90;;;;;;5022292;28;20485;-74
2023/12/02 03:36:51;;;;;;;0.90;0.90;;;-1.40;99.90;;;;;;5024098;28;20052;-74
2023/12/02 03:39:18;;;;;;;1.95;1.48;;;-1.40;99.90;;;;;;5018472;28;20769;-74
2023/12/02 03:41:44;;;;;;;2.15;1.48;;;-1.40;99.90;;;;;;5016137;28;20049;-75
2023/12/02 03:44:10;;;;;;;1.27;1.17;;;-1.40;99.90;;;;;;5020891;28;20068;-75
2023/12/02 03:46:36;;;;;;;0.95;0.88;;;-1.40;99.90;;;;;;5016824;28;20495;-75
2023/12/02 03:49:03;;;;;;;1.15;1.15;;;-1.40;99.90;;;;;;5024652;28;20100;-75
2023/12/02 03:51:29;;;;;;;0.50;0.50;;;-1.30;99.90;;;;;;5019344;28;20061;-75
2023/12/02 03:53:55;;;;;;;1.75;0.52;;;-1.40;99.90;;;;;;5022667;28;20045;-75
2023/12/02 03:56:21;;;;;;;1.17;1.17;;;-1.40;99.90;;;;;;5017443;28;20085;-74
2023/12/02 03:58:47;;;;;;;0.70;0.70;;;-1.40;99.90;;;;;;5020772;28;20067;-75
2023/12/02 04:01:13;;;;;;;1.38;1.38;;;-1.40;99.90;;;;;;5018808;28;20056;-75
2023/12/02 04:03:39;;;;;;;1.02;1.02;;;-1.40;99.90;;;;;;5025019;28;20055;-75
2023/12/02 04:06:05;;;;;;;0.93;0.93;;;-1.40;99.90;;;;;;5020046;28;21550;-75
2023/12/02 04:08:31;;;;;;;0.85;0.85;;;-1.40;99.90;;;;;;5022851;28;20128;-75
2023/12/02 04:10:57;;;;;;;0.95;0.85;;;-1.40;99.90;;;;;;5025344;28;20101;-75
2023/12/02 04:13:24;;;;;;;1.33;1.25;;;-1.40;99.90;;;;;;5019286;28;20514;-75
2023/12/02 04:15:50;;;;;;;1.05;1.02;;;-1.40;99.90;;;;;;5020007;28;20399;-74
2023/12/02 04:18:16;;;;;;;1.10;1.10;;;-1.40;99.90;;;;;;5026757;28;20052;-75
2023/12/02 04:20:42;;;;;;;1.20;0.98;;;-1.40;99.90;;;;;;5027127;28;20070;-74
2023/12/02 04:23:07;;;;;;;1.60;1.50;;;-1.40;99.90;;;;;;5019304;28;20041;-74
2023/12/02 04:25:33;;;;;;;1.52;1.42;;;-1.40;99.90;;;;;;5018508;28;20506;-74
2023/12/02 04:27:59;;;;;;;1.30;1.20;;;-1.40;99.90;;;;;;5019642;28;20054;-74
2023/12/02 04:30:24;;;;;;;1.02;0.93;;;-1.40;99.90;;;;;;5024044;28;20742;-74
2023/12/02 04:32:51;;;;;;;0.98;0.82;;;-1.40;99.90;;;;;;5023971;28;20052;-74
2023/12/02 04:35:17;;;;;;;0.60;0.60;;;-1.40;99.90;;;;;;5025410;28;20041;-74
2023/12/02 04:37:42;;;;;;;0.63;0.63;;;-1.40;99.90;;;;;;5026207;28;20099;-74
2023/12/02 04:40:11;;;;;;;1.75;1.42;;;-1.40;99.90;;;;;;5027378;28;20414;-74
2023/12/02 04:42:38;;;;;;;0.85;0.82;;;-1.40;99.90;;;;;;5024885;28;20081;-75
2023/12/02 04:45:05;;;;;;;0.97;0.97;;;-1.40;99.90;;;;;;5022667;28;20041;-75
2023/12/02 04:47:31;;;;;;;0.82;0.82;;;-1.40;99.90;;;;;;5019781;28;20041;-75
2023/12/02 04:49:57;;;;;;;1.17;1.17;;;-1.40;99.90;;;;;;5022828;28;20088;-75
2023/12/02 04:52:23;;;;;;;0.75;0.75;;;-1.40;99.90;;;;;;5002406;28;20083;-75
2023/12/02 04:54:49;;;;;;;4.63;1.60;;;-1.40;99.90;;;;;;5026881;28;20041;-75
2023/12/02 04:57:15;;;;;;;0.98;0.80;;;-1.40;99.90;;;;;;5023830;28;20049;-75
2023/12/02 04:59:40;;;;;;;0.70;0.70;;;-1.40;99.90;;;;;;5005348;28;20055;-75
2023/12/02 05:02:06;;;;;;;2.92;1.63;;;-1.40;99.90;;;;;;5013353;28;20038;-75
2023/12/02 05:04:33;;;;;;;1.60;0.82;;;-1.40;99.90;;;;;;5017722;28;20041;-75
2023/12/02 05:06:59;;;;;;;0.57;0.57;;;-1.40;99.90;;;;;;5012633;28;20499;-75
2023/12/02 05:09:24;;;;;;;0.57;0.57;;;-1.40;99.90;;;;;;5015469;28;20141;-75
2023/12/02 05:11:51;;;;;;;1.25;1.25;;;-1.40;99.90;;;;;;5021081;28;20084;-75
2023/12/02 05:14:17;;;;;;;1.00;1.00;;;-1.40;99.90;;;;;;5024063;28;20045;-75
2023/12/02 05:16:43;;;;;;;0.50;0.50;;;-1.40;99.90;;;;;;5015298;28;20135;-74
2023/12/02 05:19:09;;;;;;;0.95;0.95;;;-1.40;99.90;;;;;;5017058;28;20056;-75
2023/12/02 05:21:38;;;;;;;1.30;1.25;;;-1.40;99.90;;;;;;5023896;28;20033;-74
2023/12/02 05:24:04;;;;;;;0.73;0.73;;;-1.40;99.90;;;;;;5017632;28;20395;-74
2023/12/02 05:26:30;;;;;;;1.10;1.10;;;-1.40;99.90;;;;;;5016834;28;20064;-74
2023/12/02 05:28:56;;;;;;;2.28;1.23;;;-1.40;99.90;;;;;;5023430;28;20095;-74
2023/12/02 05:31:21;;;;;;;1.63;1.40;;;-1.30;99.90;;;;;;5024664;28;20053;-75
2023/12/02 05:33:47;;;;;;;0.82;0.82;;;-1.30;99.90;;;;;;5015883;28;20038;-74
2023/12/02 05:36:13;;;;;;;1.58;1.48;;;-1.30;99.90;;;;;;5010350;28;20056;-74
2023/12/02 05:38:39;;;;;;;1.40;1.20;;;-1.30;99.90;;;;;;5019832;28;20045;-74
2023/12/02 05:41:05;;;;;;;1.70;1.60;;;-1.30;99.90;;;;;;5008250;28;20490;-75
2023/12/02 05:43:32;;;;;;;1.80;1.70;;;-1.30;99.90;;;;;;5017087;28;20052;-75
2023/12/02 05:45:58;;;;;;;1.53;1.43;;;-1.30;99.90;;;;;;5015620;28;20073;-75
2023/12/02 05:48:24;;;;;;;1.38;1.27;;;-1.30;99.90;;;;;;5021865;28;20557;-74
2023/12/02 05:50:50;;;;;;;2.30;1.00;;;-1.30;99.90;;;;;;5009637;28;20399;-74
2023/12/02 05:53:16;;;;;;;2.03;1.90;;;-1.30;99.90;;;;;;5024400;28;20054;-74
2023/12/02 05:55:43;;;;;;;0.80;0.80;;;-1.30;99.90;;;;;;5020216;28;20056;-74
2023/12/02 05:58:08;;;;;;;1.20;1.15;;;-1.30;99.90;;;;;;5021222;28;20033;-75
2023/12/02 06:00:37;;;;;;;1.10;1.10;;;-1.30;99.90;;;;;;5019115;28;20509;-75
2023/12/02 06:03:03;;;;;;;1.77;1.60;;;-1.30;99.90;;;;;;5013288;28;20053;-74
2023/12/02 06:05:29;;;;;;;1.15;1.10;;;-1.30;99.90;;;;;;5011635;28;20768;-74
2023/12/02 06:07:54;;;;;;;0.40;0.40;;;-1.30;99.90;;;;;;5019873;28;20041;-74
2023/12/02 06:10:21;;;;;;;0.88;0.88;;;-1.20;99.90;;;;;;5020832;28;20042;-74
2023/12/02 06:12:47;;;;;;;3.10;2.70;;;-1.20;99.90;;;;;;5015122;28;20111;-74
2023/12/02 06:15:13;;;;;;;1.00;1.00;;;-1.30;99.90;;;;;;5018329;28;20506;-74
2023/12/02 06:17:39;;;;;;;4.32;2.22;;;-1.30;99.90;;;;;;5021381;28;20045;-74
2023/12/02 06:20:06;;;;;;;1.60;1.50;;;-1.30;99.90;;;;;;5018105;28;20045;-74
2023/12/02 06:22:33;;;;;;;0.82;0.82;;;-1.30;99.90;;;;;;5022429;28;20112;-73
2023/12/02 06:24:59;;;;;;;1.20;1.15;;;-1.30;99.90;;;;;;5018500;28;20089;-74
2023/12/02 06:27:24;;;;;;;3.33;1.00;;;-1.30;99.90;;;;;;5023523;28;20128;-74
2023/12/02 06:29:50;;;;;;;0.90;0.90;;;-1.30;99.90;;;;;;5023400;28;20080;-74
2023/12/02 06:32:16;;;;;;;3.40;2.33;;;-1.20;99.90;;;;;;5024454;28;20124;-74
2023/12/02 06:34:41;;;;;;;1.23;1.17;;;-1.20;99.90;;;;;;5022637;28;20475;-74
2023/12/02 06:37:07;;;;;;;1.63;1.52;;;-1.20;99.90;;;;;;5018985;28;20064;-75
2023/12/02 06:39:32;;;;;;;3.25;1.42;;;-1.20;99.90;;;;;;5021372;28;20050;-74
2023/12/02 06:41:59;;;;;;;0.63;0.63;;;-1.20;99.90;;;;;;5021956;28;20056;-74
2023/12/02 06:44:25;;;;;;;2.28;1.73;;;-1.20;99.90;;;;;;5023386;28;20050;-74
2023/12/02 06:46:51;;;;;;;1.10;1.08;;;-1.20;99.90;;;;;;5018003;28;20687;-74
2023/12/02 06:49:17;;;;;;;1.77;1.42;;;-1.20;99.90;;;;;;5019193;28;20060;-74
2023/12/02 06:51:43;;;;;;;2.22;2.13;;;-1.20;99.90;;;;;;5026387;28;20457;-75
2023/12/02 06:54:09;;;;;;;3.30;2.33;;;-1.20;99.90;;;;;;5027479;28;21397;-75
2023/12/02 06:56:36;;;;;;;1.17;1.15;;;-1.20;99.90;;;;;;5027806;28;20049;-75
2023/12/02 06:59:02;;;;;;;2.13;1.98;;;-1.20;99.90;;;;;;5024300;28;20053;-75
2023/12/02 07:01:31;;;;;;;1.00;1.00;;;-1.20;99.90;;;;;;5019682;28;20053;-75
2023/12/02 07:03:58;;;;;;;2.25;2.00;;;-1.20;99.90;;;;;;5020621;28;20072;-76
2023/12/02 07:06:25;;;;;;;0.75;0.75;;;-1.20;99.90;;;;;;5026079;28;20049;-75
2023/12/02 07:08:51;;;;;;;1.33;1.33;;;-1.20;99.90;;;;;;5023377;28;20049;-75
2023/12/02 07:11:18;;;;;;;1.88;1.75;;;-1.20;99.90;;;;;;5027089;28;20086;-75
2023/12/02 07:13:44;;;;;;;2.40;1.83;;;-1.20;99.90;;;;;;5025457;28;20045;-75
2023/12/02 07:16:10;;;;;;;1.25;1.15;;;-1.20;99.90;;;;;;5018259;28;20075;-75
2023/12/02 07:18:37;;;;;;;1.33;1.33;;;-1.20;99.90;;;;;;5022104;28;20057;-75
2023/12/02 07:21:04;;;;;;;2.25;2.05;;;-1.30;99.90;;;;;;5021441;28;20426;-75
2023/12/02 07:23:29;;;;;;;2.70;1.95;;;-1.20;99.90;;;;;;5019560;28;20041;-75
2023/12/02 07:25:56;;;;;;;1.48;1.45;;;-1.20;99.90;;;;;;5022191;28;20079;-75
2023/12/02 07:28:22;;;;;;;2.05;1.80;;;-1.20;99.90;;;;;;5025106;28;20050;-75
2023/12/02 07:30:50;;;;;;;3.38;1.75;;;-1.20;99.90;;;;;;5020753;28;20073;-75
2023/12/02 07:33:20;;;;;;;1.92;1.83;;;-1.20;99.90;;;;;;5018167;28;20100;-75
2023/12/02 07:35:45;;;;;;;1.83;1.67;;;-1.20;99.90;;;;;;5027350;28;20046;-75
2023/12/02 07:38:11;;;;;;;2.70;2.40;;;-1.20;99.90;;;;;;5022762;28;20087;-74
2023/12/02 07:40:37;;;;;;;1.58;1.02;;;-1.20;99.90;;;;;;5016139;28;20635;-74
2023/12/02 07:43:03;;;;;;;0.77;0.77;;;-1.20;99.90;;;;;;5013833;28;20106;-75
2023/12/02 07:45:29;;;;;;;2.17;2.05;;;-1.20;99.90;;;;;;5014482;28;20045;-75
2023/12/02 07:47:55;;;;;;;0.95;0.95;;;-1.20;99.90;;;;;;5015411;28;20050;-75
2023/12/02 07:50:21;;;;;;;1.25;1.15;;;-1.20;99.90;;;;;;5021079;28;20080;-75
2023/12/02 07:52:47;;;;;;;1.13;1.13;;;-1.20;99.90;;;;;;5021436;28;20041;-75
2023/12/02 07:55:13;;;;;;;2.50;2.30;;;-1.20;99.90;;;;;;5015732;28;20585;-74
2023/12/02 07:57:40;;;;;;;2.05;1.33;;;-1.20;99.90;;;;;;5013931;28;20068;-74
2023/12/02 08:00:07;;;;;;;1.17;1.13;;;-1.20;99.90;;;;;;5016316;28;20049;-74
2023/12/02 08:02:33;;;;;;;3.15;1.33;;;-1.20;99.90;;;;;;5025894;28;20124;-74
2023/12/02 08:04:59;;;;;;;2.92;2.45;;;-1.20;99.90;;;;;;5015029;28;20050;-75
2023/12/02 08:07:25;;;;;;;3.15;2.05;;;-1.20;99.90;;;;;;5019982;28;20126;-74
2023/12/02 08:09:51;;;;;;;2.25;1.90;;;-1.20;99.90;;;;;;5017879;28;20049;-74
2023/12/02 08:12:16;;;;;;;1.38;0.98;;;-1.20;99.90;;;;;;5020284;28;20076;-74
2023/12/02 08:14:42;;;;;;;2.35;1.90;;;-1.20;99.90;;;;;;5026241;28;21892;-75
2023/12/02 08:17:08;;;;;;;2.08;1.98;;;-1.20;99.90;;;;;;5024078;28;20049;-75
2023/12/02 08:19:34;;;;;;;1.80;1.70;;;-1.10;99.90;;;;;;5024798;28;20049;-75
2023/12/02 08:21:59;;;;;;;0.55;0.55;;;-1.10;99.90;;;;;;5012468;28;21368;-74
2023/12/02 08:24:25;;;;;;;1.05;1.02;;;-1.10;99.90;;;;;;5023392;28;20045;-74
2023/12/02 08:26:51;;;;;;;0.60;0.60;;;-1.10;99.90;;;;;;5016317;28;20545;-75
2023/12/02 08:29:17;;;;;;;1.67;1.58;;;-1.10;99.90;;;;;;5018865;28;20060;-74
2023/12/02 08:31:42;;;;;;;2.13;1.00;;;-1.10;99.90;;;;;;5014788;28;20053;-75
2023/12/02 08:34:08;;;;;;;0.70;0.70;;;-1.10;99.90;;;;;;5017553;28;20083;-75
2023/12/02 08:36:34;;;;;;;0.60;0.60;;;-1.00;99.90;;;;;;5025265;28;20079;-75
2023/12/02 08:38:59;;;;;;;0.60;0.60;;;-1.00;99.90;;;;;;5025409;28;20111;-75
2023/12/02 08:41:25;;;;;;;0.85;0.85;;;-1.00;99.90;;;;;;5026281;28;20049;-75
2023/12/02 08:43:50;;;;;;;0.88;0.88;;;-1.00;99.90;;;;;;5022677;28;20057;-75
2023/12/02 08:46:17;;;;;;;1.27;1.17;;;-1.00;99.90;;;;;;5017984;28;20053;-75
2023/12/02 08:48:44;;;;;;;1.38;1.27;;;-1.00;99.90;;;;;;5024499;28;20405;-74
2023/12/02 08:51:10;;;;;;;2.58;1.33;;;-1.00;99.90;;;;;;5022090;28;20141;-75
2023/12/02 08:53:35;;;;;;;5.38;1.75;;;-1.00;99.90;;;;;;5025628;28;20041;-75
2023/12/02 08:56:01;;;;;;;3.10;2.13;;;-0.90;99.90;;;;;;5015787;28;20919;-75
2023/12/02 08:58:28;;;;;;;3.83;0.88;;;-0.90;99.90;;;;;;5025915;28;20045;-75
2023/12/02 09:00:53;;;;;;;5.55;1.63;;;-0.90;99.90;;;;;;5026295;28;20073;-75
2023/12/02 09:03:19;;;;;;;2.53;2.33;;;-0.90;99.90;;;;;;5021386;28;20495;-75
2023/12/02 09:05:45;;;;;;;3.20;2.75;;;-0.90;99.90;;;;;;5023956;28;20544;-75
2023/12/02 09:08:11;;;;;;;2.47;1.55;;;-0.90;99.90;;;;;;5017619;28;20128;-75
2023/12/02 09:10:37;;;;;;;2.95;2.55;;;-0.80;99.90;;;;;;5020372;28;20059;-76
2023/12/02 09:13:23;;;;;;;1.95;1.80;;;-0.80;99.90;;;;;;5019148;28;20426;-75
2023/12/02 09:15:48;;;;;;;2.00;1.83;;;-0.80;99.90;;;;;;5014228;28;20083;-75
2023/12/02 09:18:43;;;;;;;1.60;1.48;;;-0.80;99.90;;;;;;5015830;28;20479;-75
2023/12/02 09:21:21;;;;;;;7.65;3.15;;;-0.70;99.90;;;;;;5025433;28;20589;-75
2023/12/02 09:23:50;;;;;;;0.98;0.95;;;-0.70;99.90;;;;;;5022828;28;20049;-75
2023/12/02 09:26:38;;;;;;;6.28;1.35;;;-0.60;99.90;;;;;;5011872;28;20530;-75
2023/12/02 09:29:04;;;;;;;2.65;2.17;;;-0.60;99.90;;;;;;5018580;28;20128;-75
2023/12/02 09:31:29;;;;;;;7.32;4.20;;;-0.60;99.90;;;;;;5010578;28;20149;-76
2023/12/02 09:33:59;;;;;;;1.30;1.30;;;-0.50;99.90;;;;;;5025058;28;20030;-75
2023/12/02 09:36:39;;;;;;;1.38;1.35;;;-0.50;99.90;;;;;;5017667;28;20034;-75
2023/12/02 09:39:17;;;;;;;4.10;1.08;;;-0.40;99.90;;;;;;5025281;28;20415;-75
2023/12/02 09:41:49;;;;;;;7.18;1.73;;;-0.40;99.90;;;;;;5015161;28;20081;-75
2023/12/02 09:44:33;;;;;;;1.10;1.10;;;-0.40;99.90;;;;;;5012824;28;20161;-75
2023/12/02 09:47:18;;;;;;;0.95;0.90;;;-0.40;99.90;;;;;;5011815;28;20054;-75
2023/12/02 09:50:11;;;;;;;1.35;1.35;;;-0.40;99.90;;;;;;5017567;28;20049;-75
2023/12/02 09:52:40;;;;;;;1.95;1.63;;;-0.30;99.90;;;;;;5023765;28;20815;-74
2023/12/02 09:55:06;;;;;;;;;;;-0.30;99.90;;;;;;5016168;28;20158;-75
2023/12/02 09:57:48;;;;;;;2.25;2.15;;;-0.20;99.90;;;;;;5015970;28;19926;-75
2023/12/02 10:00:42;;;;;;;5.45;1.58;;;-0.20;99.90;;;;;;5007818;28;20526;-75
2023/12/02 10:03:34;;;;;;;5.57;4.35;;;-0.10;99.90;;;;;;5020703;28;20171;-75
2023/12/02 10:06:18;;;;;;;1.10;1.02;;;-0.10;99.90;;;;;;5014365;28;20617;-74
2023/12/02 10:08:51;;;;;;;2.05;1.92;;;0.00;99.90;;;;;;5015099;28;20165;-75
2023/12/02 10:11:44;;;;;;;1.65;1.55;;;0.10;99.90;;;;;;5015306;28;20053;-75
2023/12/02 10:14:11;;;;;;;4.15;2.65;;;0.10;99.90;;;;;;5019452;28;20129;-75
2023/12/02 10:16:39;;;;;;;0.88;0.82;;;0.20;99.90;;;;;;5022286;28;20049;-74
2023/12/02 10:19:16;;;;;;;1.55;1.45;;;0.30;99.90;;;;;;5023972;28;20060;-74
2023/12/02 10:21:45;;;;;;;2.30;2.13;;;0.40;99.90;;;;;;5018831;28;20053;-74
2023/12/02 10:24:14;;;;;;;1.05;1.05;;;0.40;99.90;;;;;;5028274;28;20073;-74
2023/12/02 10:27:03;;;;;;;2.40;2.20;;;0.60;99.90;;;;;;5027227;28;20049;-74
2023/12/02 10:29:53;;;;;;;1.67;1.65;;;0.60;99.90;;;;;;5022741;28;20872;-74
2023/12/02 10:32:45;;;;;;;2.03;1.92;;;0.70;99.90;;;;;;5028078;28;20053;-74
2023/12/02 10:35:20;;;;;;;3.15;1.70;;;0.80;99.90;;;;;;5022453;28;20060;-74
2023/12/02 10:38:01;;;;;;;5.65;2.42;;;0.90;99.90;;;;;;5028156;28;20052;-74
2023/12/02 10:40:29;;;;;;;1.42;1.20;;;1.00;99.90;;;;;;5022010;28;20054;-73
2023/12/02 10:43:22;;;;;;;1.90;1.45;;;1.10;99.90;;;;;;5023351;28;20125;-73
2023/12/02 10:45:49;;;;;;;1.23;1.23;;;1.20;99.90;;;;;;5027230;28;20065;-74
2023/12/02 10:48:17;;;;;;;4.45;1.63;;;1.20;99.90;;;;;;5026019;28;20057;-74
2023/12/02 10:50:43;;;;;;;1.15;1.05;;;1.30;99.90;;;;;;5021204;28;20049;-73
2023/12/02 10:53:10;;;;;;;0.60;0.60;;;1.30;99.90;;;;;;5022743;28;20045;-74
2023/12/02 10:55:43;;;;;;;1.33;1.23;;;1.40;99.90;;;;;;5020138;28;20042;-73
2023/12/02 10:58:09;;;;;;;3.63;2.05;;;1.40;99.90;;;;;;5019059;28;20747;-74
2023/12/02 11:00:38;;;;;;;4.05;2.25;;;1.50;99.90;;;;;;5029306;28;20049;-73
2023/12/02 11:03:12;;;;;;;;;;;1.50;99.90;;;;;;5018513;28;20112;-74
2023/12/02 11:06:01;;;;;;;1.23;1.23;;;1.60;99.90;;;;;;5021207;28;19924;-73
2023/12/02 11:08:52;;;;;;;1.02;1.00;;;1.60;99.90;;;;;;5004854;28;20115;-74
2023/12/02 11:11:41;;;;;;;3.00;1.77;;;1.60;99.90;;;;;;5020140;28;20046;-74
2023/12/02 11:14:20;;;;;;;1.52;1.42;;;1.60;99.90;;;;;;5017455;28;20091;-74
2023/12/02 11:17:15;;;;;;;4.63;1.25;;;1.60;99.90;;;;;;5016208;28;20053;-73
2023/12/02 11:20:12;;;;;;;0.70;0.70;;;1.60;99.90;;;;;;5021215;28;20128;-74
2023/12/02 11:23:06;;;;;;;1.25;1.23;;;1.60;99.90;;;;;;5028218;28;20050;-75
2023/12/02 11:25:45;;;;;;;1.60;1.50;;;1.70;99.90;;;;;;5027775;28;20091;-73
2023/12/02 11:28:14;;;;;;;1.50;1.23;;;1.70;99.90;;;;;;5018569;28;20080;-73
2023/12/02 11:30:48;;;;;;;2.88;1.85;;;1.70;99.90;;;;;;5024847;28;20100;-73
2023/12/02 11:33:56;;;;;;;1.17;1.17;;;1.70;99.90;;;;;;5028548;28;20061;-77
2023/12/02 11:36:47;;;;;;;0.60;0.60;;;1.70;99.90;;;;;;5015228;28;20049;-75
2023/12/02 11:39:58;;;;;;;1.85;1.73;;;1.80;99.90;;;;;;5024435;28;20111;-75
2023/12/02 11:42:29;;;;;;;1.48;1.38;;;1.80;99.90;;;;;;4987349;28;20051;-76
2023/12/02 11:44:55;;;;;;;1.05;1.05;;;1.80;99.90;;;;;;5011679;28;20597;-76
2023/12/02 11:47:30;;;;;;;0.93;0.93;;;1.80;99.90;;;;;;5016614;28;20172;-76
2023/12/02 11:50:11;;;;;;;0.50;0.50;;;1.80;99.90;;;;;;5021840;28;20049;-75
2023/12/02 11:53:03;;;;;;;1.67;1.00;;;1.80;99.90;;;;;;5017119;28;20042;-75
2023/12/02 11:55:34;;;;;;;0.40;0.40;;;1.80;99.90;;;;;;5022712;28;20101;-75
2023/12/02 11:58:21;;;;;;;0.60;0.60;;;1.80;99.90;;;;;;5019905;28;20124;-75
2023/12/02 12:01:08;;;;;;;1.48;1.38;;;1.80;99.90;;;;;;5016573;28;20073;-75
2023/12/02 12:03:37;;;;;;;1.27;1.17;;;1.80;99.90;;;;;;5020010;28;20033;-75
2023/12/02 12:06:05;;;;;;;0.95;0.95;;;1.80;99.90;;;;;;5023288;28;20137;-76
2023/12/02 12:08:41;;;;;;;3.40;1.70;;;1.80;99.90;;;;;;5015874;28;20257;-76
2023/12/02 12:11:15;;;;;;;1.30;1.27;;;1.80;99.90;;;;;;5022445;28;20091;-76
2023/12/02 12:13:41;;;;;;;0.90;0.88;;;1.80;99.90;;;;;;5019643;28;20053;-76
2023/12/02 12:16:07;;;;;;;2.05;1.35;;;1.80;99.90;;;;;;5025195;28;20077;-75
2023/12/02 12:18:33;;;;;;;1.50;1.40;;;1.80;99.90;;;;;;5024340;28;20463;-76
2023/12/02 12:20:58;;;;;;;1.88;1.33;;;1.80;99.90;;;;;;5021550;28;20128;-75
2023/12/02 12:23:24;;;;;;;5.47;1.85;;;1.70;99.90;;;;;;5026697;28;20076;-76
2023/12/02 12:25:50;;;;;;;1.17;1.10;;;1.70;99.90;;;;;;5021393;28;20056;-76
2023/12/02 12:28:16;;;;;;;1.02;1.02;;;1.80;99.90;;;;;;5024390;28;20057;-75
2023/12/02 12:30:47;;;;;;;0.68;0.68;;;1.80;99.90;;;;;;5027587;28;20502;-75
2023/12/02 12:33:15;;;;;;;1.13;1.02;;;1.80;99.90;;;;;;5025797;28;20059;-75
2023/12/02 12:35:42;;;;;;;1.40;1.35;;;1.80;99.90;;;;;;5021390;28;20474;-75
2023/12/02 12:38:11;;;;;;;1.13;0.85;;;1.80;99.90;;;;;;5019957;28;20092;-75
2023/12/02 12:40:39;;;;;;;0.85;0.77;;;1.80;99.90;;;;;;5011339;28;20045;-75
2023/12/02 12:43:07;;;;;;;2.72;1.73;;;1.80;99.90;;;;;;5016833;28;20104;-75
2023/12/02 12:45:33;;;;;;;2.15;2.03;;;1.80;99.90;;;;;;5002656;28;20057;-74
2023/12/02 12:48:00;;;;;;;1.65;0.93;;;1.80;99.90;;;;;;5013261;28;20049;-74
2023/12/02 12:50:30;;;;;;;0.40;0.40;;;1.80;99.90;;;;;;5023903;28;20462;-75
2023/12/02 12:53:02;;;;;;;1.13;1.10;;;1.80;99.90;;;;;;5024139;28;20080;-76
2023/12/02 12:55:30;;;;;;;0.50;0.50;;;1.80;99.90;;;;;;5020229;28;20061;-76
2023/12/02 12:58:07;;;;;;;0.70;0.70;;;1.70;99.90;;;;;;5023497;28;20053;-75